To NAV CANADA Home Page Login to a new session Search on AWWS site Disclaimer Vers la page française équivalente Tips FAQ What's new on the site To the Forecasts and Observations / NOTAM section To "File a Flight Plan" website Publications and other links Update of the User's profile FIC Telephone Numbers My Weather Data Folder Route Weather Data Regional Weather Data Local Weather Data To the Forecasts and Observations / NOTAM section
Request Generated 08/09/2020 at 12:59:14 UTC . Weather information available at that time is displayed.


Go to a specific product

Save this request - Inactive

METAR/TAF

CALGARY/YYC CALGARY INTL/AB    

METAR CYYC 091200Z 20003KT 30SM FEW088 06/03 A3009 RMK AC1 SLP209=
METAR CYYC 091100Z 00000KT 10SM FEW090 07/04 A3008 RMK AC1 SLP201=
METAR CYYC 091000Z 22004KT 10SM FEW100 06/04 A3007 RMK AC2 SLP190=

TAF CYYC 091138Z 0912/1012 VRB03KT P6SM FEW080
BECMG 0912/0914 32008KT
FM092000 32012KT P6SM SCT080
BECMG 1002/1004 26008KT
FM100800 28008KT P6SM BKN060
RMK NXT FCST BY 091500Z=

CALGARY/SPRINGBANK/AB    (show WxCam)

METAR CYBW 091200Z AUTO 29004KT 9SM CLR 01/00 A3010 RMK SLP222=
METAR CYBW 091100Z AUTO 30004KT 9SM CLR 03/02 A3010 RMK SLP215=
METAR CYBW 091000Z AUTO 29002KT 9SM CLR 02/01 A3008 RMK SLP201=

TAF CYBW 091138Z 0912/0924 VRB03KT P6SM FEW080
BECMG 0912/0914 32008KT
FM092000 32012KT P6SM SCT080
RMK FCST BASED ON AUTO OBS. NXT FCST BY 091800Z=


GRAPHICAL FA CLOUDS & WEATHER FORECASTS
To the Product Selector
Graphical FA gfacn32      

GRAPHICAL FA ICING, TURBULENCE & FREEZING LEVEL FORECASTS
To the Product Selector
Graphical FA gfacn32      

Your time UTC time
Weather data provided by Environment Canada and NAV CANADA